Windham, Montana
Current Conditions -  °F | °C
As of 7:54 AM on Thursday 23 Oct 2014 (Local Time) from KLWT Reporting Station
Clear Clear  
Wind Chill: 55°   Ceiling: Unl
Heat Index: 55°   Visibility: 10mi
Dew Point: 30°   Wind: 20mph
Humidity: 38%   Direction: 230°SW
Pressure: 29.84"   Gusts: NA
Location:  47.1454°N, 110.159°W
Report Text: KLWT 231354Z AUTO 23017KT 10SM CLR 13/M01 A2984 RMK AO2 PK WND 23026/1323 SLP092 T01281011
Loading
Personal Weather Stations






























Interactive Weather Map
Tropical Storm Tracking
New forecast layout! Learn more

10-Day Weather Forecast

Advertisements
Track Severe Weather on mobile